sensor_id;sensor_type;location;lat;lon;timestamp;pressure;altitude;pressure_sealevel;temperature;humidity
41334;BME280;27078;46.428;6.256;2024-03-08T00:01:39;96130.88;;;1.83;70.22
41334;BME280;27078;46.428;6.256;2024-03-08T00:04:05;96134.16;;;1.85;70.03
41334;BME280;27078;46.428;6.256;2024-03-08T00:06:31;96124.91;;;1.86;70.67
41334;BME280;27078;46.428;6.256;2024-03-08T00:08:56;96131.50;;;1.91;70.73
41334;BME280;27078;46.428;6.256;2024-03-08T00:11:21;96118.38;;;1.93;70.67
41334;BME280;27078;46.428;6.256;2024-03-08T00:13:47;96126.09;;;2.01;69.85
41334;BME280;27078;46.428;6.256;2024-03-08T00:16:12;96120.09;;;2.09;69.79
41334;BME280;27078;46.428;6.256;2024-03-08T00:18:37;96126.22;;;2.16;69.03
41334;BME280;27078;46.428;6.256;2024-03-08T00:21:02;96117.94;;;2.11;69.64
41334;BME280;27078;46.428;6.256;2024-03-08T00:23:28;96120.09;;;2.09;70.07
41334;BME280;27078;46.428;6.256;2024-03-08T00:25:53;96110.00;;;2.09;69.63
41334;BME280;27078;46.428;6.256;2024-03-08T00:28:19;96106.13;;;2.05;69.31
41334;BME280;27078;46.428;6.256;2024-03-08T00:30:45;96107.50;;;2.03;69.40
41334;BME280;27078;46.428;6.256;2024-03-08T00:33:11;96106.88;;;1.96;69.74
41334;BME280;27078;46.428;6.256;2024-03-08T00:35:37;96108.50;;;1.92;70.13
41334;BME280;27078;46.428;6.256;2024-03-08T00:38:02;96105.75;;;1.92;70.32
41334;BME280;27078;46.428;6.256;2024-03-08T00:40:27;96113.16;;;1.91;71.65
41334;BME280;27078;46.428;6.256;2024-03-08T00:42:53;96104.00;;;1.75;70.38
41334;BME280;27078;46.428;6.256;2024-03-08T00:45:19;96098.41;;;1.60;71.03
41334;BME280;27078;46.428;6.256;2024-03-08T00:47:44;96094.81;;;1.54;71.50
41334;BME280;27078;46.428;6.256;2024-03-08T00:50:09;96094.28;;;1.57;71.94
41334;BME280;27078;46.428;6.256;2024-03-08T00:52:35;96093.47;;;1.57;73.00
41334;BME280;27078;46.428;6.256;2024-03-08T00:55:00;96096.84;;;1.69;74.84
41334;BME280;27078;46.428;6.256;2024-03-08T00:57:25;96092.41;;;1.63;71.17
41334;BME280;27078;46.428;6.256;2024-03-08T00:59:50;96091.31;;;1.59;71.56
41334;BME280;27078;46.428;6.256;2024-03-08T01:02:16;96088.28;;;1.60;71.28
41334;BME280;27078;46.428;6.256;2024-03-08T01:04:43;96085.25;;;1.57;70.58
41334;BME280;27078;46.428;6.256;2024-03-08T01:07:09;96094.56;;;1.56;70.06
41334;BME280;27078;46.428;6.256;2024-03-08T01:09:34;96088.00;;;1.57;69.85
41334;BME280;27078;46.428;6.256;2024-03-08T01:11:59;96092.63;;;1.56;68.87
41334;BME280;27078;46.428;6.256;2024-03-08T01:14:26;96089.63;;;1.58;69.48
41334;BME280;27078;46.428;6.256;2024-03-08T01:16:51;96090.75;;;1.62;70.34
41334;BME280;27078;46.428;6.256;2024-03-08T01:19:16;96089.09;;;1.61;69.87
41334;BME280;27078;46.428;6.256;2024-03-08T01:21:42;96082.03;;;1.65;69.88
41334;BME280;27078;46.428;6.256;2024-03-08T01:24:08;96080.44;;;1.69;69.19
41334;BME280;27078;46.428;6.256;2024-03-08T01:26:33;96084.28;;;1.73;69.90
41334;BME280;27078;46.428;6.256;2024-03-08T01:29:01;96075.56;;;1.76;69.22
41334;BME280;27078;46.428;6.256;2024-03-08T01:31:30;96068.47;;;1.80;70.17
41334;BME280;27078;46.428;6.256;2024-03-08T01:33:55;96065.75;;;1.85;69.27
41334;BME280;27078;46.428;6.256;2024-03-08T01:36:21;96067.72;;;1.90;69.69
41334;BME280;27078;46.428;6.256;2024-03-08T01:38:46;96068.53;;;1.91;68.67
41334;BME280;27078;46.428;6.256;2024-03-08T01:41:11;96072.38;;;1.89;69.23
41334;BME280;27078;46.428;6.256;2024-03-08T01:43:38;96062.78;;;1.92;69.26
41334;BME280;27078;46.428;6.256;2024-03-08T01:46:03;96058.97;;;1.93;68.81
41334;BME280;27078;46.428;6.256;2024-03-08T01:48:30;96054.56;;;1.87;69.55
41334;BME280;27078;46.428;6.256;2024-03-08T01:50:55;96048.78;;;1.83;68.86
41334;BME280;27078;46.428;6.256;2024-03-08T01:53:21;96043.03;;;1.80;69.19
41334;BME280;27078;46.428;6.256;2024-03-08T01:55:48;96040.53;;;1.78;69.12
41334;BME280;27078;46.428;6.256;2024-03-08T01:58:13;96037.78;;;1.73;69.17
41334;BME280;27078;46.428;6.256;2024-03-08T02:00:43;96035.81;;;1.69;70.01
41334;BME280;27078;46.428;6.256;2024-03-08T02:03:09;96038.81;;;1.67;70.50
41334;BME280;27078;46.428;6.256;2024-03-08T02:05:34;96027.31;;;1.65;70.44
41334;BME280;27078;46.428;6.256;2024-03-08T02:08:00;96019.72;;;1.72;70.51
41334;BME280;27078;46.428;6.256;2024-03-08T02:10:25;96024.34;;;1.72;70.61
41334;BME280;27078;46.428;6.256;2024-03-08T02:12:50;96019.72;;;1.72;70.45
41334;BME280;27078;46.428;6.256;2024-03-08T02:15:16;96009.84;;;1.71;70.20
41334;BME280;27078;46.428;6.256;2024-03-08T02:17:41;96015.06;;;1.73;70.51
41334;BME280;27078;46.428;6.256;2024-03-08T02:20:06;96010.97;;;1.75;70.60
41334;BME280;27078;46.428;6.256;2024-03-08T02:22:34;96003.84;;;1.74;71.07
41334;BME280;27078;46.428;6.256;2024-03-08T02:24:59;96001.94;;;1.75;70.75
41334;BME280;27078;46.428;6.256;2024-03-08T02:27:26;95994.53;;;1.75;70.83
41334;BME280;27078;46.428;6.256;2024-03-08T02:29:55;96003.31;;;1.72;70.20
41334;BME280;27078;46.428;6.256;2024-03-08T02:32:23;95996.97;;;1.67;70.83
41334;BME280;27078;46.428;6.256;2024-03-08T02:34:48;96000.97;;;1.54;70.76
41334;BME280;27078;46.428;6.256;2024-03-08T02:37:14;95994.09;;;1.46;70.47
41334;BME280;27078;46.428;6.256;2024-03-08T02:39:39;95994.84;;;1.36;70.71
41334;BME280;27078;46.428;6.256;2024-03-08T02:42:05;95986.59;;;1.31;71.21
41334;BME280;27078;46.428;6.256;2024-03-08T02:44:31;95986.03;;;1.29;71.49
41334;BME280;27078;46.428;6.256;2024-03-08T02:46:57;95976.16;;;1.28;70.85
41334;BME280;27078;46.428;6.256;2024-03-08T02:49:22;95985.16;;;1.24;71.24
41334;BME280;27078;46.428;6.256;2024-03-08T02:51:47;95985.09;;;1.13;71.36
41334;BME280;27078;46.428;6.256;2024-03-08T02:54:12;95982.03;;;1.05;71.28
41334;BME280;27078;46.428;6.256;2024-03-08T02:56:37;95987.44;;;1.00;71.94
41334;BME280;27078;46.428;6.256;2024-03-08T02:59:03;95977.81;;;0.92;71.65
41334;BME280;27078;46.428;6.256;2024-03-08T03:01:28;95973.38;;;0.86;71.63
41334;BME280;27078;46.428;6.256;2024-03-08T03:03:53;95977.44;;;0.83;71.89
41334;BME280;27078;46.428;6.256;2024-03-08T03:06:18;95982.81;;;0.73;72.13
41334;BME280;27078;46.428;6.256;2024-03-08T03:08:46;95978.66;;;0.65;72.28
41334;BME280;27078;46.428;6.256;2024-03-08T03:11:11;95968.75;;;0.59;72.59
41334;BME280;27078;46.428;6.256;2024-03-08T03:13:38;95955.88;;;0.55;72.72
41334;BME280;27078;46.428;6.256;2024-03-08T03:16:03;95961.66;;;0.58;73.50
41334;BME280;27078;46.428;6.256;2024-03-08T03:18:29;95960.84;;;0.58;73.19
41334;BME280;27078;46.428;6.256;2024-03-08T03:20:54;95968.97;;;0.53;72.65
41334;BME280;27078;46.428;6.256;2024-03-08T03:23:19;95967.84;;;0.49;72.99
41334;BME280;27078;46.428;6.256;2024-03-08T03:25:45;95957.72;;;0.49;72.99
41334;BME280;27078;46.428;6.256;2024-03-08T03:28:11;95966.50;;;0.51;72.91
41334;BME280;27078;46.428;6.256;2024-03-08T03:30:39;95964.22;;;0.43;72.78
41334;BME280;27078;46.428;6.256;2024-03-08T03:33:04;95965.53;;;0.40;73.38
41334;BME280;27078;46.428;6.256;2024-03-08T03:35:33;95966.41;;;0.41;72.97
41334;BME280;27078;46.428;6.256;2024-03-08T03:37:59;95967.72;;;0.38;72.64
41334;BME280;27078;46.428;6.256;2024-03-08T03:40:31;95967.72;;;0.38;72.99
41334;BME280;27078;46.428;6.256;2024-03-08T03:42:57;95961.97;;;0.35;73.09
41334;BME280;27078;46.428;6.256;2024-03-08T03:45:25;95965.13;;;0.27;73.35
41334;BME280;27078;46.428;6.256;2024-03-08T03:47:51;95962.59;;;0.20;73.72
41334;BME280;27078;46.428;6.256;2024-03-08T03:50:17;95953.66;;;0.25;73.74
41334;BME280;27078;46.428;6.256;2024-03-08T03:52:44;95952.63;;;0.31;72.95
41334;BME280;27078;46.428;6.256;2024-03-08T03:55:09;95945.19;;;0.26;72.84
41334;BME280;27078;46.428;6.256;2024-03-08T03:57:36;95946.78;;;0.22;72.90
41334;BME280;27078;46.428;6.256;2024-03-08T04:00:02;95940.22;;;0.18;72.96
41334;BME280;27078;46.428;6.256;2024-03-08T04:02:28;95946.47;;;0.18;73.45
41334;BME280;27078;46.428;6.256;2024-03-08T04:04:53;95941.25;;;0.17;74.11
41334;BME280;27078;46.428;6.256;2024-03-08T04:07:19;95948.22;;;0.30;75.13
41334;BME280;27078;46.428;6.256;2024-03-08T04:09:45;95938.44;;;0.34;74.01
41334;BME280;27078;46.428;6.256;2024-03-08T04:12:10;95944.13;;;0.27;72.93
41334;BME280;27078;46.428;6.256;2024-03-08T04:14:35;95946.78;;;0.22;73.06
41334;BME280;27078;46.428;6.256;2024-03-08T04:17:01;95933.34;;;0.15;72.90
41334;BME280;27078;46.428;6.256;2024-03-08T04:19:26;95937.38;;;0.08;73.36
41334;BME280;27078;46.428;6.256;2024-03-08T04:21:53;95942.69;;;-0.03;73.40
41334;BME280;27078;46.428;6.256;2024-03-08T04:24:18;95945.94;;;-0.06;73.64
41334;BME280;27078;46.428;6.256;2024-03-08T04:26:43;95939.91;;;-0.08;73.71
41334;BME280;27078;46.428;6.256;2024-03-08T04:29:08;95947.78;;;-0.11;73.87
41334;BME280;27078;46.428;6.256;2024-03-08T04:31:34;95942.00;;;-0.15;73.87
41334;BME280;27078;46.428;6.256;2024-03-08T04:33:59;95940.66;;;-0.12;74.17
41334;BME280;27078;46.428;6.256;2024-03-08T04:36:24;95930.06;;;-0.09;74.12
41334;BME280;27078;46.428;6.256;2024-03-08T04:38:50;95919.16;;;-0.09;74.36
41334;BME280;27078;46.428;6.256;2024-03-08T04:41:16;95933.88;;;-0.10;74.94
41334;BME280;27078;46.428;6.256;2024-03-08T04:43:41;95921.31;;;-0.11;75.02
41334;BME280;27078;46.428;6.256;2024-03-08T04:46:06;95911.50;;;-0.12;75.27
41334;BME280;27078;46.428;6.256;2024-03-08T04:48:32;95916.44;;;-0.09;75.38
41334;BME280;27078;46.428;6.256;2024-03-08T04:50:57;95919.16;;;-0.09;75.60
41334;BME280;27078;46.428;6.256;2024-03-08T04:53:22;95921.06;;;-0.09;75.27
41334;BME280;27078;46.428;6.256;2024-03-08T04:55:48;95913.72;;;-0.09;75.36
41334;BME280;27078;46.428;6.256;2024-03-08T04:58:14;95925.72;;;-0.10;75.18
41334;BME280;27078;46.428;6.256;2024-03-08T05:00:39;95917.75;;;-0.11;75.04
41334;BME280;27078;46.428;6.256;2024-03-08T05:03:04;95910.91;;;-0.14;74.95
41334;BME280;27078;46.428;6.256;2024-03-08T05:05:30;95912.06;;;-0.10;75.06
41334;BME280;27078;46.428;6.256;2024-03-08T05:07:55;95907.66;;;-0.11;75.20
41334;BME280;27078;46.428;6.256;2024-03-08T05:10:20;95906.84;;;-0.11;74.98
41334;BME280;27078;46.428;6.256;2024-03-08T05:12:45;95902.72;;;-0.14;74.98
41334;BME280;27078;46.428;6.256;2024-03-08T05:15:11;95902.72;;;-0.14;74.92
41334;BME280;27078;46.428;6.256;2024-03-08T05:17:36;95898.56;;;-0.21;74.65
41334;BME280;27078;46.428;6.256;2024-03-08T05:20:01;95909.97;;;-0.25;74.58
41334;BME280;27078;46.428;6.256;2024-03-08T05:22:27;95909.41;;;-0.27;75.13
41334;BME280;27078;46.428;6.256;2024-03-08T05:24:52;95908.84;;;-0.29;75.12
41334;BME280;27078;46.428;6.256;2024-03-08T05:27:18;95900.38;;;-0.27;75.13
41334;BME280;27078;46.428;6.256;2024-03-08T05:29:43;95901.72;;;-0.30;75.13
41334;BME280;27078;46.428;6.256;2024-03-08T05:32:08;95899.25;;;-0.31;75.10
41334;BME280;27078;46.428;6.256;2024-03-08T05:34:35;95900.91;;;-0.30;75.00
41334;BME280;27078;46.428;6.256;2024-03-08T05:37:00;95898.22;;;-0.25;75.22
41334;BME280;27078;46.428;6.256;2024-03-08T05:39:26;95900.91;;;-0.30;75.53
41334;BME280;27078;46.428;6.256;2024-03-08T05:41:51;95890.00;;;-0.30;75.66
41334;BME280;27078;46.428;6.256;2024-03-08T05:44:17;95884.25;;;-0.34;75.57
41334;BME280;27078;46.428;6.256;2024-03-08T05:46:42;95903.56;;;-0.35;75.98
41334;BME280;27078;46.428;6.256;2024-03-08T05:49:08;95883.38;;;-0.34;75.81
41334;BME280;27078;46.428;6.256;2024-03-08T05:51:35;95887.78;;;-0.33;76.05
41334;BME280;27078;46.428;6.256;2024-03-08T05:54:04;95878.25;;;-0.31;75.73
41334;BME280;27078;46.428;6.256;2024-03-08T05:56:30;95882.88;;;-0.31;76.09
41334;BME280;27078;46.428;6.256;2024-03-08T05:58:56;95877.94;;;-0.34;76.48
41334;BME280;27078;46.428;6.256;2024-03-08T06:01:21;95882.06;;;-0.32;76.65
41334;BME280;27078;46.428;6.256;2024-03-08T06:03:47;95874.47;;;-0.30;76.91
41334;BME280;27078;46.428;6.256;2024-03-08T06:06:14;95872.28;;;-0.28;76.65
41334;BME280;27078;46.428;6.256;2024-03-08T06:08:39;95870.97;;;-0.25;76.16
41334;BME280;27078;46.428;6.256;2024-03-08T06:11:05;95870.97;;;-0.25;76.09
41334;BME280;27078;46.428;6.256;2024-03-08T06:13:34;95870.13;;;-0.26;76.05
41334;BME280;27078;46.428;6.256;2024-03-08T06:15:59;95858.91;;;-0.29;76.04
41334;BME280;27078;46.428;6.256;2024-03-08T06:18:25;95866.28;;;-0.30;75.61
41334;BME280;27078;46.428;6.256;2024-03-08T06:20:51;95866.53;;;-0.31;75.91
41334;BME280;27078;46.428;6.256;2024-03-08T06:23:16;95858.66;;;-0.28;75.75
41334;BME280;27078;46.428;6.256;2024-03-08T06:25:43;95853.78;;;-0.26;75.83
41334;BME280;27078;46.428;6.256;2024-03-08T06:28:08;95864.19;;;-0.22;75.61
41334;BME280;27078;46.428;6.256;2024-03-08T06:30:34;95865.91;;;-0.16;75.81
41334;BME280;27078;46.428;6.256;2024-03-08T06:32:59;95859.72;;;-0.07;75.54
41334;BME280;27078;46.428;6.256;2024-03-08T06:35:25;95858.13;;;-0.03;75.32
41334;BME280;27078;46.428;6.256;2024-03-08T06:37:50;95863.09;;;0.06;75.14
41334;BME280;27078;46.428;6.256;2024-03-08T06:40:15;95862.09;;;0.12;74.86
41334;BME280;27078;46.428;6.256;2024-03-08T06:42:41;95870.88;;;0.19;74.56
41334;BME280;27078;46.428;6.256;2024-03-08T06:45:06;95862.75;;;0.24;74.20
41334;BME280;27078;46.428;6.256;2024-03-08T06:47:34;95858.97;;;0.30;74.26
41334;BME280;27078;46.428;6.256;2024-03-08T06:49:59;95862.66;;;0.41;74.09
41334;BME280;27078;46.428;6.256;2024-03-08T06:52:24;95877.22;;;0.52;73.79
41334;BME280;27078;46.428;6.256;2024-03-08T06:54:49;95868.00;;;0.63;73.75
41334;BME280;27078;46.428;6.256;2024-03-08T06:57:17;95867.28;;;0.73;72.85
41334;BME280;27078;46.428;6.256;2024-03-08T06:59:42;95870.44;;;0.91;72.77
41334;BME280;27078;46.428;6.256;2024-03-08T07:02:08;95875.38;;;1.00;72.50
41334;BME280;27078;46.428;6.256;2024-03-08T07:04:36;95875.75;;;1.08;72.20
41334;BME280;27078;46.428;6.256;2024-03-08T07:07:06;95870.34;;;1.24;72.66
41334;BME280;27078;46.428;6.256;2024-03-08T07:09:35;95866.31;;;1.36;71.70
41334;BME280;27078;46.428;6.256;2024-03-08T07:12:00;95869.16;;;1.57;72.63
41334;BME280;27078;46.428;6.256;2024-03-08T07:14:26;95869.78;;;1.69;71.17
41334;BME280;27078;46.428;6.256;2024-03-08T07:16:52;95869.81;;;1.84;70.99
41334;BME280;27078;46.428;6.256;2024-03-08T07:19:17;95867.66;;;1.92;70.62
41334;BME280;27078;46.428;6.256;2024-03-08T07:21:44;95868.81;;;2.11;70.86
41334;BME280;27078;46.428;6.256;2024-03-08T07:24:09;95870.75;;;2.26;70.96
41334;BME280;27078;46.428;6.256;2024-03-08T07:26:52;95871.91;;;2.40;69.59
41334;BME280;27078;46.428;6.256;2024-03-08T07:29:18;95861.22;;;2.64;71.44
41334;BME280;27078;46.428;6.256;2024-03-08T07:31:43;95850.81;;;2.81;69.65
41334;BME280;27078;46.428;6.256;2024-03-08T07:34:20;95849.16;;;2.96;69.02
41334;BME280;27078;46.428;6.256;2024-03-08T07:36:46;95857.38;;;2.96;68.72
41334;BME280;27078;46.428;6.256;2024-03-08T07:39:11;95858.47;;;3.00;69.80
41334;BME280;27078;46.428;6.256;2024-03-08T07:41:36;95861.78;;;2.92;68.84
41334;BME280;27078;46.428;6.256;2024-03-08T07:44:02;95865.06;;;2.83;69.07
41334;BME280;27078;46.428;6.256;2024-03-08T07:46:28;95862.88;;;2.75;69.02
41334;BME280;27078;46.428;6.256;2024-03-08T07:48:54;95862.34;;;2.83;69.34
41334;BME280;27078;46.428;6.256;2024-03-08T07:51:19;95856.28;;;2.81;69.26
41334;BME280;27078;46.428;6.256;2024-03-08T07:53:45;95864.53;;;2.71;69.46
41334;BME280;27078;46.428;6.256;2024-03-08T07:56:10;95860.69;;;2.67;69.98
41334;BME280;27078;46.428;6.256;2024-03-08T07:58:38;95853.81;;;2.65;69.94
41334;BME280;27078;46.428;6.256;2024-03-08T08:01:05;95843.69;;;2.75;69.04
41334;BME280;27078;46.428;6.256;2024-03-08T08:03:30;95841.22;;;2.79;69.24
41334;BME280;27078;46.428;6.256;2024-03-08T08:05:56;95842.56;;;2.76;68.96
41334;BME280;27078;46.428;6.256;2024-03-08T08:08:21;95845.88;;;2.78;69.26
41334;BME280;27078;46.428;6.256;2024-03-08T08:10:46;95843.69;;;2.91;68.88
41334;BME280;27078;46.428;6.256;2024-03-08T08:13:12;95839.28;;;3.00;68.42
41334;BME280;27078;46.428;6.256;2024-03-08T08:15:37;95835.44;;;3.11;68.50
41334;BME280;27078;46.428;6.256;2024-03-08T08:18:03;95823.88;;;3.19;67.71
41334;BME280;27078;46.428;6.256;2024-03-08T08:20:30;95827.72;;;3.28;66.99
41334;BME280;27078;46.428;6.256;2024-03-08T08:22:56;95814.50;;;3.41;68.57
41334;BME280;27078;46.428;6.256;2024-03-08T08:25:21;95815.84;;;3.53;66.59
41334;BME280;27078;46.428;6.256;2024-03-08T08:27:49;95810.03;;;3.60;67.41
41334;BME280;27078;46.428;6.256;2024-03-08T08:30:14;95801.50;;;3.72;68.83
41334;BME280;27078;46.428;6.256;2024-03-08T08:32:40;95802.78;;;3.85;67.54
41334;BME280;27078;46.428;6.256;2024-03-08T08:35:07;95806.19;;;3.66;66.60
41334;BME280;27078;46.428;6.256;2024-03-08T08:37:40;95812.47;;;3.72;67.00
41334;BME280;27078;46.428;6.256;2024-03-08T08:40:06;95811.31;;;3.83;67.41
41334;BME280;27078;46.428;6.256;2024-03-08T08:42:34;95812.69;;;3.86;66.67
41334;BME280;27078;46.428;6.256;2024-03-08T08:45:00;95810.38;;;4.03;68.04
41334;BME280;27078;46.428;6.256;2024-03-08T08:47:26;95797.91;;;4.21;67.03
41334;BME280;27078;46.428;6.256;2024-03-08T08:49:51;95804.47;;;4.30;65.79
41334;BME280;27078;46.428;6.256;2024-03-08T08:52:17;95810.75;;;4.31;65.25
41334;BME280;27078;46.428;6.256;2024-03-08T08:54:42;95805.78;;;4.38;65.70
41334;BME280;27078;46.428;6.256;2024-03-08T08:57:07;95802.44;;;4.46;65.56
41334;BME280;27078;46.428;6.256;2024-03-08T08:59:35;95804.53;;;4.59;65.28
41334;BME280;27078;46.428;6.256;2024-03-08T09:02:01;95796.19;;;4.69;65.56
41334;BME280;27078;46.428;6.256;2024-03-08T09:04:26;95787.63;;;4.76;65.25
41334;BME280;27078;46.428;6.256;2024-03-08T09:06:52;95788.69;;;4.80;66.45
41334;BME280;27078;46.428;6.256;2024-03-08T09:09:17;95789.50;;;4.81;65.35
41334;BME280;27078;46.428;6.256;2024-03-08T09:11:42;95800.06;;;4.97;65.64
41334;BME280;27078;46.428;6.256;2024-03-08T09:14:07;95788.91;;;5.13;64.32
41334;BME280;27078;46.428;6.256;2024-03-08T09:16:33;95785.19;;;5.28;63.70
41334;BME280;27078;46.428;6.256;2024-03-08T09:18:59;95790.63;;;5.33;63.84
41334;BME280;27078;46.428;6.256;2024-03-08T09:21:24;95783.78;;;5.54;63.73
41334;BME280;27078;46.428;6.256;2024-03-08T09:23:49;95785.38;;;5.60;62.42
41334;BME280;27078;46.428;6.256;2024-03-08T09:26:15;95774.28;;;5.65;62.44
41334;BME280;27078;46.428;6.256;2024-03-08T09:28:40;95774.22;;;5.71;61.37
41334;BME280;27078;46.428;6.256;2024-03-08T09:31:05;95772.69;;;5.59;60.65
41334;BME280;27078;46.428;6.256;2024-03-08T09:33:31;95769.34;;;5.62;62.95
41334;BME280;27078;46.428;6.256;2024-03-08T09:35:56;95770.13;;;5.44;61.97
41334;BME280;27078;46.428;6.256;2024-03-08T09:38:23;95764.75;;;5.34;61.47
41334;BME280;27078;46.428;6.256;2024-03-08T09:40:49;95762.13;;;5.24;63.92
41334;BME280;27078;46.428;6.256;2024-03-08T09:43:15;95760.22;;;5.19;62.50
41334;BME280;27078;46.428;6.256;2024-03-08T09:45:40;95752.28;;;5.17;63.89
41334;BME280;27078;46.428;6.256;2024-03-08T09:48:09;95736.78;;;5.27;64.31
41334;BME280;27078;46.428;6.256;2024-03-08T09:50:37;95736.66;;;5.37;62.19
41334;BME280;27078;46.428;6.256;2024-03-08T09:53:02;95737.16;;;5.39;63.07
41334;BME280;27078;46.428;6.256;2024-03-08T09:55:27;95728.13;;;5.57;62.46
41334;BME280;27078;46.428;6.256;2024-03-08T09:57:59;95728.50;;;5.69;62.83
41334;BME280;27078;46.428;6.256;2024-03-08T10:00:43;95719.41;;;5.93;62.46
41334;BME280;27078;46.428;6.256;2024-03-08T10:03:09;95712.56;;;6.09;62.45
41334;BME280;27078;46.428;6.256;2024-03-08T10:05:34;95709.84;;;6.42;61.62
41334;BME280;27078;46.428;6.256;2024-03-08T10:07:59;95706.59;;;6.54;60.09
41334;BME280;27078;46.428;6.256;2024-03-08T10:10:24;95699.72;;;6.70;59.71
41334;BME280;27078;46.428;6.256;2024-03-08T10:12:49;95695.63;;;6.81;59.42
41334;BME280;27078;46.428;6.256;2024-03-08T10:15:16;95691.19;;;6.99;58.96
41334;BME280;27078;46.428;6.256;2024-03-08T10:17:45;95687.91;;;6.97;59.02
41334;BME280;27078;46.428;6.256;2024-03-08T10:20:14;95695.56;;;7.00;60.43
41334;BME280;27078;46.428;6.256;2024-03-08T10:22:40;95691.00;;;7.09;58.27
41334;BME280;27078;46.428;6.256;2024-03-08T10:25:07;95691.41;;;7.17;57.85
41334;BME280;27078;46.428;6.256;2024-03-08T10:27:35;95688.31;;;7.18;58.87
41334;BME280;27078;46.428;6.256;2024-03-08T10:30:00;95690.28;;;7.18;58.31
41334;BME280;27078;46.428;6.256;2024-03-08T10:32:26;95690.59;;;7.16;58.89
41334;BME280;27078;46.428;6.256;2024-03-08T10:34:51;95686.97;;;7.02;59.63
41334;BME280;27078;46.428;6.256;2024-03-08T10:37:17;95689.44;;;7.03;60.50
41334;BME280;27078;46.428;6.256;2024-03-08T10:39:50;95684.19;;;6.88;59.78
41334;BME280;27078;46.428;6.256;2024-03-08T10:42:21;95673.50;;;6.86;59.35
41334;BME280;27078;46.428;6.256;2024-03-08T10:47:47;95666.75;;;6.93;60.55
41334;BME280;27078;46.428;6.256;2024-03-08T10:52:39;95660.53;;;7.15;60.15
41334;BME280;27078;46.428;6.256;2024-03-08T10:55:05;95647.31;;;7.25;59.39
41334;BME280;27078;46.428;6.256;2024-03-08T10:57:37;95639.56;;;7.41;59.18
41334;BME280;27078;46.428;6.256;2024-03-08T11:00:03;95633.72;;;7.56;58.43
41334;BME280;27078;46.428;6.256;2024-03-08T11:02:32;95639.97;;;7.85;57.37
41334;BME280;27078;46.428;6.256;2024-03-08T11:04:58;95630.91;;;8.07;56.41
41334;BME280;27078;46.428;6.256;2024-03-08T11:07:23;95626.69;;;8.32;56.72
41334;BME280;27078;46.428;6.256;2024-03-08T11:09:52;95631.41;;;8.31;55.99
41334;BME280;27078;46.428;6.256;2024-03-08T11:12:35;95629.13;;;8.33;55.63
41334;BME280;27078;46.428;6.256;2024-03-08T11:15:09;95621.09;;;8.23;55.20
41334;BME280;27078;46.428;6.256;2024-03-08T11:20:11;95610.56;;;8.47;55.19
41334;BME280;27078;46.428;6.256;2024-03-08T11:23:00;95610.09;;;8.54;55.65
41334;BME280;27078;46.428;6.256;2024-03-08T11:25:33;95602.97;;;8.93;55.46
41334;BME280;27078;46.428;6.256;2024-03-08T11:30:33;95588.56;;;9.22;52.99
41334;BME280;27078;46.428;6.256;2024-03-08T11:33:00;95590.19;;;9.23;51.96
41334;BME280;27078;46.428;6.256;2024-03-08T11:35:26;95584.44;;;9.11;53.67
41334;BME280;27078;46.428;6.256;2024-03-08T11:37:52;95597.31;;;9.07;53.71
41334;BME280;27078;46.428;6.256;2024-03-08T11:40:17;95582.59;;;8.89;53.95
41334;BME280;27078;46.428;6.256;2024-03-08T11:42:47;95565.38;;;9.01;55.83
41334;BME280;27078;46.428;6.256;2024-03-08T11:45:16;95553.53;;;9.17;54.34
41334;BME280;27078;46.428;6.256;2024-03-08T11:47:42;95561.78;;;9.00;53.67
41334;BME280;27078;46.428;6.256;2024-03-08T11:50:10;95550.88;;;9.04;54.79
41334;BME280;27078;46.428;6.256;2024-03-08T11:52:36;95545.34;;;9.04;55.46
41334;BME280;27078;46.428;6.256;2024-03-08T11:55:02;95547.66;;;9.10;54.06
41334;BME280;27078;46.428;6.256;2024-03-08T11:57:28;95549.81;;;9.22;54.85
41334;BME280;27078;46.428;6.256;2024-03-08T11:59:54;95535.34;;;9.42;54.99
41334;BME280;27078;46.428;6.256;2024-03-08T12:02:20;95533.22;;;9.39;52.85
41334;BME280;27078;46.428;6.256;2024-03-08T12:04:45;95523.44;;;9.33;53.47
41334;BME280;27078;46.428;6.256;2024-03-08T12:07:11;95513.81;;;9.48;53.81
41334;BME280;27078;46.428;6.256;2024-03-08T12:09:39;95513.50;;;9.50;54.19
41334;BME280;27078;46.428;6.256;2024-03-08T12:12:06;95519.53;;;9.52;54.52
41334;BME280;27078;46.428;6.256;2024-03-08T12:14:32;95518.56;;;9.48;53.23
41334;BME280;27078;46.428;6.256;2024-03-08T12:16:58;95512.84;;;9.44;53.24
41334;BME280;27078;46.428;6.256;2024-03-08T12:19:23;95516.94;;;9.64;54.00
41334;BME280;27078;46.428;6.256;2024-03-08T12:21:49;95506.84;;;9.77;52.56
41334;BME280;27078;46.428;6.256;2024-03-08T12:24:15;95503.88;;;9.82;52.41
41334;BME280;27078;46.428;6.256;2024-03-08T12:26:41;95491.13;;;10.07;53.58
41334;BME280;27078;46.428;6.256;2024-03-08T12:31:52;95489.44;;;10.40;52.63
41334;BME280;27078;46.428;6.256;2024-03-08T12:34:18;95473.69;;;10.62;52.50
41334;BME280;27078;46.428;6.256;2024-03-08T12:36:50;95471.84;;;10.66;50.98
41334;BME280;27078;46.428;6.256;2024-03-08T12:39:18;95469.81;;;10.46;51.25
41334;BME280;27078;46.428;6.256;2024-03-08T12:41:53;95468.91;;;10.24;51.67
41334;BME280;27078;46.428;6.256;2024-03-08T12:44:19;95455.56;;;10.09;52.48
41334;BME280;27078;46.428;6.256;2024-03-08T12:46:46;95461.81;;;9.97;51.43
41334;BME280;27078;46.428;6.256;2024-03-08T12:49:12;95453.53;;;9.80;51.63
41334;BME280;27078;46.428;6.256;2024-03-08T12:51:37;95458.75;;;9.64;52.20
41334;BME280;27078;46.428;6.256;2024-03-08T12:54:03;95448.81;;;9.63;52.85
41334;BME280;27078;46.428;6.256;2024-03-08T12:56:30;95442.63;;;9.66;53.08
41334;BME280;27078;46.428;6.256;2024-03-08T12:58:55;95430.56;;;9.53;53.12
41334;BME280;27078;46.428;6.256;2024-03-08T13:01:21;95418.53;;;9.40;53.99
41334;BME280;27078;46.428;6.256;2024-03-08T13:03:47;95422.28;;;9.27;53.74
41334;BME280;27078;46.428;6.256;2024-03-08T13:06:14;95421.13;;;9.19;53.69
41334;BME280;27078;46.428;6.256;2024-03-08T13:08:40;95408.09;;;9.20;52.64
41334;BME280;27078;46.428;6.256;2024-03-08T13:11:06;95397.81;;;9.55;54.13
41334;BME280;27078;46.428;6.256;2024-03-08T13:13:37;95384.56;;;9.78;53.80
41334;BME280;27078;46.428;6.256;2024-03-08T13:16:05;95386.22;;;10.26;53.13
41334;BME280;27078;46.428;6.256;2024-03-08T13:18:33;95374.56;;;10.42;52.88